Weather at Billings Logan International Airport

Public forecast

Using degrees Fahrenheit for public forecast. Weather courtesy of forecast.io.

Current aviation weather report (METAR) for Billings Logan International Airport

Report is more than 2 hours old.

2024/06/24 20:53 (retrieved 3 hours ago)

KBIL 242053Z 07010KT 10SM FEW090 FEW200 29/07 A2985 RMK AO2 SLP068 CB DSNT SW T02940067 56017

Aviation forecast (TAF) for Billings Logan International Airport

2024/06/24 18:22 (retrieved 6 hours ago)

TAF KBIL 241720Z 2418/2518 06010KT P6SM SCT100 SCT200